Robert Gray Army Air Field Airport
KGRK : now visible

Airfield :











YOU CAN JOIN US ON...

 
LOGIN :

Register | Disclaimer

   EN    FR    IT 

 









Legend :    VFR   Marginal VFR   IFR   Intensive IFR   Very Intensive IFR
Visi :
Ceiling :
>= 8 km
>= 3000ft
5 to 8 km
1000 to 3000 ft
1500m to 5 km
500 to 1000 ft
800 to 1500m
200 to 500 ft
< 800m
< 200 ft
Symbols :   Thunderstorms  Fog  Heavy snow  Heavy precipitations  Wind > 20 kt






- Airport Elevation : 1015 ft
- IATA code : GRK


KGRK - Robert Gray Army Air Field

CURRENT METAR :
  • 220426Z AUTO 00000KT 9SM -RA BKN032 OVC055 09/05 A3026 RMK AO2 RAB26 SLPNO $

EXPIRED METARs :
  • 220358Z AUTO 14006KT 10SM SCT055 OVC095 09/05 A3023 RMK AO2 PK WND 13029/14 RAE0258RAB15E20RAB21E52 SLPNO P0001 T00850052 $
  • 220338Z AUTO 16008KT 7SM -RA OVC090 09/04 A3024 RMK AO2 RAE0258RAB15E20RAB21 PRESRR SLPNO
  • 220321Z AUTO 14021KT 9SM -RA FEW065 BKN090 OVC110 11/02 A3018 RMK AO2 RAE0258RAB15E20RAB21 SLPNO $
  • 220259Z AUTO 14018KT 9SM FEW070 OVC100 10/02 A3022 RMK AO2 RAE58 SLPNO $
  • 220249Z AUTO 14017KT 9SM -RA OVC100 11/00 A3021 RMK AO2 RAB49 SLPNO $
  • 220158Z AUTO 13012KT 9SM BKN090 OVC160 11/00 A3022 RMK AO2 SLPNO T01111003 $

TAF TAF KGRK
Valid from the 22 at 00:00 until the 23 at 06:00 UTC


220000Z 2200/2306 15012G18KT 9999 SCT110 BKN130 OVC200 QNH3023INS
BECMG 2206/2207 13012G18KT 4800 -SHRA OVC010 510204 QNH2990INS
TEMPO 2212/2215 OVC008
BECMG 2300/2301 29012G18KT 9999 NSW SCT015 QNH2989INS TX14/2221Z TN05/2212Z



MET'MAP, your aeronautical weather chart ! - Copyright ORBIFLY December 2007 - Disclaimer

ORBIFLY MET'MAP TEAM :

Programming & Development : Alexandra Zaïnal
Concept & original design : Baudouin d'Aumeries
Assistance for programming : Marc-Olivier Méhu
Technical & hardware support : Manuel Goepfert

Contact : metmap@orbifly.com




SOURCES & CREDITS :

   NOAA       Earth
Advisory